sensor_id;sensor_type;location;lat;lon;timestamp;temperature;humidity
62581;DHT22;48640;48.770;9.148;2023-02-01T00:00:16;5.20;99.90
62581;DHT22;48640;48.770;9.148;2023-02-01T00:02:43;5.10;99.90
62581;DHT22;48640;48.770;9.148;2023-02-01T00:05:10;5.10;99.90
62581;DHT22;48640;48.770;9.148;2023-02-01T00:07:37;5.10;99.90
62581;DHT22;48640;48.770;9.148;2023-02-01T00:10:06;5.10;99.90
62581;DHT22;48640;48.770;9.148;2023-02-01T00:12:33;5.10;99.90
62581;DHT22;48640;48.770;9.148;2023-02-01T00:15:02;5.10;99.90
62581;DHT22;48640;48.770;9.148;2023-02-01T00:17:28;5.10;99.90
62581;DHT22;48640;48.770;9.148;2023-02-01T00:19:55;5.10;99.90
62581;DHT22;48640;48.770;9.148;2023-02-01T00:22:22;5.10;99.90
62581;DHT22;48640;48.770;9.148;2023-02-01T00:24:49;5.10;99.90
62581;DHT22;48640;48.770;9.148;2023-02-01T00:27:15;5.10;99.90
62581;DHT22;48640;48.770;9.148;2023-02-01T00:29:45;5.10;99.90
62581;DHT22;48640;48.770;9.148;2023-02-01T00:32:14;5.10;99.90
62581;DHT22;48640;48.770;9.148;2023-02-01T00:34:40;5.00;99.90
62581;DHT22;48640;48.770;9.148;2023-02-01T00:37:07;5.10;99.90
62581;DHT22;48640;48.770;9.148;2023-02-01T00:39:34;5.10;99.90
62581;DHT22;48640;48.770;9.148;2023-02-01T00:42:01;5.00;99.90
62581;DHT22;48640;48.770;9.148;2023-02-01T00:44:28;5.00;99.90
62581;DHT22;48640;48.770;9.148;2023-02-01T00:46:58;5.10;99.90
62581;DHT22;48640;48.770;9.148;2023-02-01T00:49:27;5.10;99.90
62581;DHT22;48640;48.770;9.148;2023-02-01T00:51:54;5.10;99.90
62581;DHT22;48640;48.770;9.148;2023-02-01T00:54:20;5.20;99.90
62581;DHT22;48640;48.770;9.148;2023-02-01T00:56:47;5.20;99.90
62581;DHT22;48640;48.770;9.148;2023-02-01T00:59:14;5.20;99.90
62581;DHT22;48640;48.770;9.148;2023-02-01T01:01:41;5.20;99.90
62581;DHT22;48640;48.770;9.148;2023-02-01T01:04:08;5.30;99.90
62581;DHT22;48640;48.770;9.148;2023-02-01T01:06:36;5.30;99.90
62581;DHT22;48640;48.770;9.148;2023-02-01T01:09:05;5.30;99.90
62581;DHT22;48640;48.770;9.148;2023-02-01T01:11:34;5.30;99.90
62581;DHT22;48640;48.770;9.148;2023-02-01T01:14:01;5.30;99.90
62581;DHT22;48640;48.770;9.148;2023-02-01T01:16:30;5.30;99.90
62581;DHT22;48640;48.770;9.148;2023-02-01T01:18:57;5.30;99.90
62581;DHT22;48640;48.770;9.148;2023-02-01T01:21:24;5.30;99.90
62581;DHT22;48640;48.770;9.148;2023-02-01T01:23:52;5.30;99.90
62581;DHT22;48640;48.770;9.148;2023-02-01T01:26:21;5.30;99.90
62581;DHT22;48640;48.770;9.148;2023-02-01T01:28:49;5.20;99.90
62581;DHT22;48640;48.770;9.148;2023-02-01T01:31:17;5.20;99.90
62581;DHT22;48640;48.770;9.148;2023-02-01T01:33:47;5.30;99.90
62581;DHT22;48640;48.770;9.148;2023-02-01T01:36:14;5.30;99.90
62581;DHT22;48640;48.770;9.148;2023-02-01T01:38:41;5.20;99.90
62581;DHT22;48640;48.770;9.148;2023-02-01T01:41:14;5.30;99.90
62581;DHT22;48640;48.770;9.148;2023-02-01T01:43:48;5.30;99.90
62581;DHT22;48640;48.770;9.148;2023-02-01T01:46:16;5.30;99.90
62581;DHT22;48640;48.770;9.148;2023-02-01T01:48:43;5.40;99.90
62581;DHT22;48640;48.770;9.148;2023-02-01T01:51:13;5.40;99.90
62581;DHT22;48640;48.770;9.148;2023-02-01T01:53:44;5.30;99.90
62581;DHT22;48640;48.770;9.148;2023-02-01T01:56:14;5.30;99.90
62581;DHT22;48640;48.770;9.148;2023-02-01T01:58:41;5.40;99.90
62581;DHT22;48640;48.770;9.148;2023-02-01T02:01:09;5.40;99.90
62581;DHT22;48640;48.770;9.148;2023-02-01T02:03:39;5.40;99.90
62581;DHT22;48640;48.770;9.148;2023-02-01T02:06:25;5.30;99.80
62581;DHT22;48640;48.770;9.148;2023-02-01T02:08:54;5.30;99.90
62581;DHT22;48640;48.770;9.148;2023-02-01T02:11:22;5.30;99.90
62581;DHT22;48640;48.770;9.148;2023-02-01T02:13:51;5.30;99.90
62581;DHT22;48640;48.770;9.148;2023-02-01T02:16:49;5.30;99.90
62581;DHT22;48640;48.770;9.148;2023-02-01T02:19:32;5.30;99.90
62581;DHT22;48640;48.770;9.148;2023-02-01T02:22:35;5.30;99.90
62581;DHT22;48640;48.770;9.148;2023-02-01T02:25:38;5.40;99.90
62581;DHT22;48640;48.770;9.148;2023-02-01T02:28:31;5.40;99.90
62581;DHT22;48640;48.770;9.148;2023-02-01T02:31:22;5.40;99.80
62581;DHT22;48640;48.770;9.148;2023-02-01T02:33:58;5.40;99.80
62581;DHT22;48640;48.770;9.148;2023-02-01T02:36:31;5.40;99.80
62581;DHT22;48640;48.770;9.148;2023-02-01T02:39:07;5.40;99.70
62581;DHT22;48640;48.770;9.148;2023-02-01T02:41:47;5.40;99.80
62581;DHT22;48640;48.770;9.148;2023-02-01T02:44:37;5.40;99.90
62581;DHT22;48640;48.770;9.148;2023-02-01T02:47:32;5.40;99.80
62581;DHT22;48640;48.770;9.148;2023-02-01T02:50:08;5.40;99.90
62581;DHT22;48640;48.770;9.148;2023-02-01T02:52:58;5.40;99.90
62581;DHT22;48640;48.770;9.148;2023-02-01T02:55:45;5.40;99.90
62581;DHT22;48640;48.770;9.148;2023-02-01T02:58:12;5.40;99.90
62581;DHT22;48640;48.770;9.148;2023-02-01T03:00:57;5.40;99.90
62581;DHT22;48640;48.770;9.148;2023-02-01T03:03:42;5.40;99.90
62581;DHT22;48640;48.770;9.148;2023-02-01T03:06:36;5.40;99.90
62581;DHT22;48640;48.770;9.148;2023-02-01T03:09:08;5.30;99.90
62581;DHT22;48640;48.770;9.148;2023-02-01T03:11:36;5.30;99.90
62581;DHT22;48640;48.770;9.148;2023-02-01T03:14:23;5.30;99.90
62581;DHT22;48640;48.770;9.148;2023-02-01T03:16:57;5.30;99.90
62581;DHT22;48640;48.770;9.148;2023-02-01T03:19:27;5.30;99.90
62581;DHT22;48640;48.770;9.148;2023-02-01T03:21:59;5.30;99.90
62581;DHT22;48640;48.770;9.148;2023-02-01T03:24:33;5.40;99.90
62581;DHT22;48640;48.770;9.148;2023-02-01T03:27:05;5.30;99.90
62581;DHT22;48640;48.770;9.148;2023-02-01T03:29:40;5.30;99.90
62581;DHT22;48640;48.770;9.148;2023-02-01T03:32:08;5.30;99.90
62581;DHT22;48640;48.770;9.148;2023-02-01T03:34:36;5.20;99.90
62581;DHT22;48640;48.770;9.148;2023-02-01T03:37:06;5.20;99.90
62581;DHT22;48640;48.770;9.148;2023-02-01T03:39:37;5.20;99.90
62581;DHT22;48640;48.770;9.148;2023-02-01T03:42:08;5.20;99.90
62581;DHT22;48640;48.770;9.148;2023-02-01T03:44:40;5.20;99.90
62581;DHT22;48640;48.770;9.148;2023-02-01T03:47:10;5.20;99.90
62581;DHT22;48640;48.770;9.148;2023-02-01T03:49:42;5.10;99.90
62581;DHT22;48640;48.770;9.148;2023-02-01T03:52:14;5.20;99.90
62581;DHT22;48640;48.770;9.148;2023-02-01T03:54:43;5.10;99.90
62581;DHT22;48640;48.770;9.148;2023-02-01T03:57:14;5.10;99.90
62581;DHT22;48640;48.770;9.148;2023-02-01T03:59:42;5.20;99.90
62581;DHT22;48640;48.770;9.148;2023-02-01T04:02:09;5.20;99.90
62581;DHT22;48640;48.770;9.148;2023-02-01T04:04:36;5.20;99.90
62581;DHT22;48640;48.770;9.148;2023-02-01T04:07:03;5.20;99.90
62581;DHT22;48640;48.770;9.148;2023-02-01T04:09:31;5.20;99.90
62581;DHT22;48640;48.770;9.148;2023-02-01T04:11:58;5.20;99.90
62581;DHT22;48640;48.770;9.148;2023-02-01T04:14:25;5.20;99.90
62581;DHT22;48640;48.770;9.148;2023-02-01T04:16:51;5.20;99.90
62581;DHT22;48640;48.770;9.148;2023-02-01T04:19:18;5.20;99.90
62581;DHT22;48640;48.770;9.148;2023-02-01T04:21:45;5.20;99.90
62581;DHT22;48640;48.770;9.148;2023-02-01T04:24:12;5.30;99.90
62581;DHT22;48640;48.770;9.148;2023-02-01T04:26:40;5.30;99.90
62581;DHT22;48640;48.770;9.148;2023-02-01T04:29:08;5.30;99.90
62581;DHT22;48640;48.770;9.148;2023-02-01T04:31:35;5.40;99.90
62581;DHT22;48640;48.770;9.148;2023-02-01T04:34:02;5.40;99.90
62581;DHT22;48640;48.770;9.148;2023-02-01T04:36:29;5.40;99.90
62581;DHT22;48640;48.770;9.148;2023-02-01T04:38:55;5.40;99.90
62581;DHT22;48640;48.770;9.148;2023-02-01T04:41:22;5.40;99.90
62581;DHT22;48640;48.770;9.148;2023-02-01T04:43:51;5.50;99.90
62581;DHT22;48640;48.770;9.148;2023-02-01T04:46:18;5.50;99.90
62581;DHT22;48640;48.770;9.148;2023-02-01T04:48:45;5.50;99.90
62581;DHT22;48640;48.770;9.148;2023-02-01T04:51:12;5.50;99.90
62581;DHT22;48640;48.770;9.148;2023-02-01T04:53:40;5.50;99.90
62581;DHT22;48640;48.770;9.148;2023-02-01T04:56:07;5.60;99.90
62581;DHT22;48640;48.770;9.148;2023-02-01T04:58:34;5.70;99.90
62581;DHT22;48640;48.770;9.148;2023-02-01T05:01:04;5.80;99.90
62581;DHT22;48640;48.770;9.148;2023-02-01T05:03:31;5.70;99.90
62581;DHT22;48640;48.770;9.148;2023-02-01T05:05:58;5.70;99.90
62581;DHT22;48640;48.770;9.148;2023-02-01T05:08:25;5.70;99.90
62581;DHT22;48640;48.770;9.148;2023-02-01T05:10:54;5.70;99.90
62581;DHT22;48640;48.770;9.148;2023-02-01T05:13:21;5.70;99.90
62581;DHT22;48640;48.770;9.148;2023-02-01T05:16:07;5.80;99.90
62581;DHT22;48640;48.770;9.148;2023-02-01T05:18:33;5.70;99.90
62581;DHT22;48640;48.770;9.148;2023-02-01T05:21:00;5.70;99.90
62581;DHT22;48640;48.770;9.148;2023-02-01T05:23:27;5.80;99.90
62581;DHT22;48640;48.770;9.148;2023-02-01T05:25:58;5.80;99.80
62581;DHT22;48640;48.770;9.148;2023-02-01T05:28:25;5.80;99.90
62581;DHT22;48640;48.770;9.148;2023-02-01T05:30:51;5.80;99.90
62581;DHT22;48640;48.770;9.148;2023-02-01T05:33:20;5.80;99.90
62581;DHT22;48640;48.770;9.148;2023-02-01T05:35:47;5.80;99.90
62581;DHT22;48640;48.770;9.148;2023-02-01T05:38:13;5.80;99.90
62581;DHT22;48640;48.770;9.148;2023-02-01T05:40:40;5.80;99.90
62581;DHT22;48640;48.770;9.148;2023-02-01T05:43:07;5.90;99.90
62581;DHT22;48640;48.770;9.148;2023-02-01T05:45:34;5.80;99.90
62581;DHT22;48640;48.770;9.148;2023-02-01T05:48:00;5.80;99.90
62581;DHT22;48640;48.770;9.148;2023-02-01T05:50:28;5.80;99.80
62581;DHT22;48640;48.770;9.148;2023-02-01T05:52:55;5.70;99.90
62581;DHT22;48640;48.770;9.148;2023-02-01T05:55:22;5.70;99.90
62581;DHT22;48640;48.770;9.148;2023-02-01T05:57:49;5.80;99.90
62581;DHT22;48640;48.770;9.148;2023-02-01T06:00:16;5.80;99.90
62581;DHT22;48640;48.770;9.148;2023-02-01T06:02:43;5.70;99.90
62581;DHT22;48640;48.770;9.148;2023-02-01T06:05:10;5.60;99.90
62581;DHT22;48640;48.770;9.148;2023-02-01T06:07:38;5.50;99.90
62581;DHT22;48640;48.770;9.148;2023-02-01T06:10:05;5.40;99.90
62581;DHT22;48640;48.770;9.148;2023-02-01T06:12:32;5.40;99.90
62581;DHT22;48640;48.770;9.148;2023-02-01T06:14:59;5.40;99.90
62581;DHT22;48640;48.770;9.148;2023-02-01T06:17:25;5.40;99.90
62581;DHT22;48640;48.770;9.148;2023-02-01T06:19:52;5.40;99.90
62581;DHT22;48640;48.770;9.148;2023-02-01T06:22:19;5.30;99.90
62581;DHT22;48640;48.770;9.148;2023-02-01T06:24:48;5.30;99.90
62581;DHT22;48640;48.770;9.148;2023-02-01T06:27:15;5.30;99.90
62581;DHT22;48640;48.770;9.148;2023-02-01T06:29:41;5.30;99.90
62581;DHT22;48640;48.770;9.148;2023-02-01T06:32:08;5.30;99.90
62581;DHT22;48640;48.770;9.148;2023-02-01T06:34:35;5.40;99.90
62581;DHT22;48640;48.770;9.148;2023-02-01T06:37:02;5.40;99.90
62581;DHT22;48640;48.770;9.148;2023-02-01T06:39:29;5.40;99.90
62581;DHT22;48640;48.770;9.148;2023-02-01T06:41:57;5.40;99.90
62581;DHT22;48640;48.770;9.148;2023-02-01T06:44:24;5.50;99.90
62581;DHT22;48640;48.770;9.148;2023-02-01T06:46:51;5.50;99.90
62581;DHT22;48640;48.770;9.148;2023-02-01T06:49:17;5.60;99.90
62581;DHT22;48640;48.770;9.148;2023-02-01T06:51:45;5.70;99.90
62581;DHT22;48640;48.770;9.148;2023-02-01T06:54:12;5.70;99.90
62581;DHT22;48640;48.770;9.148;2023-02-01T06:56:39;5.70;99.90
62581;DHT22;48640;48.770;9.148;2023-02-01T06:59:07;5.70;99.90
62581;DHT22;48640;48.770;9.148;2023-02-01T07:01:34;5.70;99.90
62581;DHT22;48640;48.770;9.148;2023-02-01T07:04:01;5.80;99.90
62581;DHT22;48640;48.770;9.148;2023-02-01T07:06:27;5.80;99.90
62581;DHT22;48640;48.770;9.148;2023-02-01T07:08:54;5.80;99.90
62581;DHT22;48640;48.770;9.148;2023-02-01T07:11:22;5.70;99.90
62581;DHT22;48640;48.770;9.148;2023-02-01T07:13:49;5.80;99.90
62581;DHT22;48640;48.770;9.148;2023-02-01T07:16:18;5.80;99.90
62581;DHT22;48640;48.770;9.148;2023-02-01T07:18:46;5.90;99.90
62581;DHT22;48640;48.770;9.148;2023-02-01T07:21:13;5.90;99.90
62581;DHT22;48640;48.770;9.148;2023-02-01T07:23:40;5.90;99.90
62581;DHT22;48640;48.770;9.148;2023-02-01T07:26:09;6.00;99.90
62581;DHT22;48640;48.770;9.148;2023-02-01T07:28:36;6.00;99.90
62581;DHT22;48640;48.770;9.148;2023-02-01T07:31:03;6.00;99.90
62581;DHT22;48640;48.770;9.148;2023-02-01T07:33:31;6.10;99.90
62581;DHT22;48640;48.770;9.148;2023-02-01T07:36:01;6.00;99.60
62581;DHT22;48640;48.770;9.148;2023-02-01T07:38:28;6.10;99.80
62581;DHT22;48640;48.770;9.148;2023-02-01T07:40:57;6.10;99.80
62581;DHT22;48640;48.770;9.148;2023-02-01T07:43:24;6.10;99.50
62581;DHT22;48640;48.770;9.148;2023-02-01T07:45:52;6.10;99.40
62581;DHT22;48640;48.770;9.148;2023-02-01T07:48:19;6.10;99.20
62581;DHT22;48640;48.770;9.148;2023-02-01T07:50:47;6.10;99.10
62581;DHT22;48640;48.770;9.148;2023-02-01T07:53:14;6.30;99.20
62581;DHT22;48640;48.770;9.148;2023-02-01T07:55:41;6.30;99.10
62581;DHT22;48640;48.770;9.148;2023-02-01T07:58:08;6.40;98.60
62581;DHT22;48640;48.770;9.148;2023-02-01T08:00:34;6.30;98.50
62581;DHT22;48640;48.770;9.148;2023-02-01T08:03:19;6.30;98.50
62581;DHT22;48640;48.770;9.148;2023-02-01T08:05:47;6.30;98.30
62581;DHT22;48640;48.770;9.148;2023-02-01T08:08:14;6.40;98.00
62581;DHT22;48640;48.770;9.148;2023-02-01T08:10:40;6.40;97.90
62581;DHT22;48640;48.770;9.148;2023-02-01T08:13:07;6.40;97.80
62581;DHT22;48640;48.770;9.148;2023-02-01T08:15:35;6.40;97.50
62581;DHT22;48640;48.770;9.148;2023-02-01T08:18:01;6.50;97.30
62581;DHT22;48640;48.770;9.148;2023-02-01T08:20:28;6.50;97.30
62581;DHT22;48640;48.770;9.148;2023-02-01T08:22:57;6.50;97.10
62581;DHT22;48640;48.770;9.148;2023-02-01T08:25:24;6.50;96.80
62581;DHT22;48640;48.770;9.148;2023-02-01T08:27:51;6.60;96.90
62581;DHT22;48640;48.770;9.148;2023-02-01T08:30:19;6.60;96.60
62581;DHT22;48640;48.770;9.148;2023-02-01T08:32:45;6.60;96.30
62581;DHT22;48640;48.770;9.148;2023-02-01T08:35:12;6.70;96.10
62581;DHT22;48640;48.770;9.148;2023-02-01T08:37:39;6.80;95.80
62581;DHT22;48640;48.770;9.148;2023-02-01T08:40:09;6.90;95.70
62581;DHT22;48640;48.770;9.148;2023-02-01T08:42:35;6.90;94.80
62581;DHT22;48640;48.770;9.148;2023-02-01T08:45:18;7.10;94.80
62581;DHT22;48640;48.770;9.148;2023-02-01T08:47:45;7.20;94.40
62581;DHT22;48640;48.770;9.148;2023-02-01T08:50:13;7.30;94.20
62581;DHT22;48640;48.770;9.148;2023-02-01T08:52:40;7.40;94.10
62581;DHT22;48640;48.770;9.148;2023-02-01T08:55:09;7.40;93.60
62581;DHT22;48640;48.770;9.148;2023-02-01T08:57:36;7.50;93.80
62581;DHT22;48640;48.770;9.148;2023-02-01T09:00:04;7.50;93.60
62581;DHT22;48640;48.770;9.148;2023-02-01T09:02:31;7.50;93.10
62581;DHT22;48640;48.770;9.148;2023-02-01T09:04:58;7.40;93.10
62581;DHT22;48640;48.770;9.148;2023-02-01T09:07:25;7.30;93.40
62581;DHT22;48640;48.770;9.148;2023-02-01T09:09:52;7.30;92.90
62581;DHT22;48640;48.770;9.148;2023-02-01T09:12:21;7.30;93.20
62581;DHT22;48640;48.770;9.148;2023-02-01T09:14:48;7.20;93.20
62581;DHT22;48640;48.770;9.148;2023-02-01T09:17:15;7.20;93.20
62581;DHT22;48640;48.770;9.148;2023-02-01T09:19:41;7.20;93.30
62581;DHT22;48640;48.770;9.148;2023-02-01T09:22:08;7.20;93.30
62581;DHT22;48640;48.770;9.148;2023-02-01T09:24:35;7.20;93.50
62581;DHT22;48640;48.770;9.148;2023-02-01T09:27:02;7.20;93.20
62581;DHT22;48640;48.770;9.148;2023-02-01T09:29:30;7.20;93.20
62581;DHT22;48640;48.770;9.148;2023-02-01T09:31:57;7.10;93.20
62581;DHT22;48640;48.770;9.148;2023-02-01T09:34:24;7.10;93.40
62581;DHT22;48640;48.770;9.148;2023-02-01T09:36:50;7.20;93.80
62581;DHT22;48640;48.770;9.148;2023-02-01T09:39:17;7.30;93.10
62581;DHT22;48640;48.770;9.148;2023-02-01T09:41:59;7.50;92.70
62581;DHT22;48640;48.770;9.148;2023-02-01T09:44:42;7.70;92.80
62581;DHT22;48640;48.770;9.148;2023-02-01T09:47:12;7.90;92.30
62581;DHT22;48640;48.770;9.148;2023-02-01T09:49:45;8.00;92.40
62581;DHT22;48640;48.770;9.148;2023-02-01T09:52:15;8.10;91.60
62581;DHT22;48640;48.770;9.148;2023-02-01T09:54:46;8.30;91.60
62581;DHT22;48640;48.770;9.148;2023-02-01T09:57:18;8.30;91.00
62581;DHT22;48640;48.770;9.148;2023-02-01T09:59:50;8.10;90.40
62581;DHT22;48640;48.770;9.148;2023-02-01T10:02:23;8.00;90.40
62581;DHT22;48640;48.770;9.148;2023-02-01T10:04:50;7.90;90.60
62581;DHT22;48640;48.770;9.148;2023-02-01T10:07:28;8.00;91.10
62581;DHT22;48640;48.770;9.148;2023-02-01T10:10:00;7.90;90.40
62581;DHT22;48640;48.770;9.148;2023-02-01T10:12:48;8.00;90.40
62581;DHT22;48640;48.770;9.148;2023-02-01T10:15:28;7.90;90.50
62581;DHT22;48640;48.770;9.148;2023-02-01T10:18:17;7.90;90.20
62581;DHT22;48640;48.770;9.148;2023-02-01T10:20:55;7.90;90.00
62581;DHT22;48640;48.770;9.148;2023-02-01T10:23:35;8.00;90.10
62581;DHT22;48640;48.770;9.148;2023-02-01T10:26:17;8.10;90.40
62581;DHT22;48640;48.770;9.148;2023-02-01T10:28:48;8.20;89.10
62581;DHT22;48640;48.770;9.148;2023-02-01T10:31:18;8.30;88.00
62581;DHT22;48640;48.770;9.148;2023-02-01T10:33:46;8.30;88.40
62581;DHT22;48640;48.770;9.148;2023-02-01T10:36:19;8.50;88.20
62581;DHT22;48640;48.770;9.148;2023-02-01T10:38:47;8.70;87.60
62581;DHT22;48640;48.770;9.148;2023-02-01T10:41:16;8.70;86.10
62581;DHT22;48640;48.770;9.148;2023-02-01T10:43:45;8.70;85.20
62581;DHT22;48640;48.770;9.148;2023-02-01T10:46:16;8.50;85.20
62581;DHT22;48640;48.770;9.148;2023-02-01T10:48:43;8.40;85.50
62581;DHT22;48640;48.770;9.148;2023-02-01T10:51:16;8.40;85.00
62581;DHT22;48640;48.770;9.148;2023-02-01T10:53:50;8.40;85.40
62581;DHT22;48640;48.770;9.148;2023-02-01T10:56:23;8.30;85.10
62581;DHT22;48640;48.770;9.148;2023-02-01T10:58:50;8.40;84.70
62581;DHT22;48640;48.770;9.148;2023-02-01T11:01:21;8.40;85.20
62581;DHT22;48640;48.770;9.148;2023-02-01T11:03:54;8.40;84.90
62581;DHT22;48640;48.770;9.148;2023-02-01T11:06:27;8.10;84.90
62581;DHT22;48640;48.770;9.148;2023-02-01T11:08:56;8.00;84.50
62581;DHT22;48640;48.770;9.148;2023-02-01T11:11:24;8.10;84.60
62581;DHT22;48640;48.770;9.148;2023-02-01T11:13:56;8.00;84.10
62581;DHT22;48640;48.770;9.148;2023-02-01T11:16:34;8.20;85.00
62581;DHT22;48640;48.770;9.148;2023-02-01T11:19:01;8.30;83.70
62581;DHT22;48640;48.770;9.148;2023-02-01T11:21:27;8.20;82.80
62581;DHT22;48640;48.770;9.148;2023-02-01T11:23:55;8.20;83.00
62581;DHT22;48640;48.770;9.148;2023-02-01T11:26:24;8.20;83.20
62581;DHT22;48640;48.770;9.148;2023-02-01T11:28:55;8.00;83.30
62581;DHT22;48640;48.770;9.148;2023-02-01T11:31:24;8.10;84.40
62581;DHT22;48640;48.770;9.148;2023-02-01T11:33:54;8.10;83.30
62581;DHT22;48640;48.770;9.148;2023-02-01T11:36:29;8.10;83.40
62581;DHT22;48640;48.770;9.148;2023-02-01T11:39:09;8.30;83.00
62581;DHT22;48640;48.770;9.148;2023-02-01T11:41:42;8.40;82.90
62581;DHT22;48640;48.770;9.148;2023-02-01T11:44:21;8.50;81.60
62581;DHT22;48640;48.770;9.148;2023-02-01T11:46:48;8.50;81.10
62581;DHT22;48640;48.770;9.148;2023-02-01T11:49:21;8.50;82.40
62581;DHT22;48640;48.770;9.148;2023-02-01T11:52:03;8.60;82.10
62581;DHT22;48640;48.770;9.148;2023-02-01T11:54:48;8.60;81.50
62581;DHT22;48640;48.770;9.148;2023-02-01T11:57:34;8.70;80.50
62581;DHT22;48640;48.770;9.148;2023-02-01T12:00:15;8.60;77.80
62581;DHT22;48640;48.770;9.148;2023-02-01T12:02:59;8.60;78.80
62581;DHT22;48640;48.770;9.148;2023-02-01T12:05:39;8.60;78.60
62581;DHT22;48640;48.770;9.148;2023-02-01T12:08:29;8.60;77.90
62581;DHT22;48640;48.770;9.148;2023-02-01T12:11:21;8.50;78.10
62581;DHT22;48640;48.770;9.148;2023-02-01T12:13:58;8.30;78.20
62581;DHT22;48640;48.770;9.148;2023-02-01T12:16:31;8.20;78.50
62581;DHT22;48640;48.770;9.148;2023-02-01T12:19:15;8.20;78.80
62581;DHT22;48640;48.770;9.148;2023-02-01T12:21:54;8.20;78.80
62581;DHT22;48640;48.770;9.148;2023-02-01T12:24:46;8.20;79.00
62581;DHT22;48640;48.770;9.148;2023-02-01T12:27:31;8.20;79.30
62581;DHT22;48640;48.770;9.148;2023-02-01T12:30:31;8.30;78.90
62581;DHT22;48640;48.770;9.148;2023-02-01T12:33:04;8.30;79.10
62581;DHT22;48640;48.770;9.148;2023-02-01T12:35:47;8.30;79.20
62581;DHT22;48640;48.770;9.148;2023-02-01T12:38:42;8.20;79.40
62581;DHT22;48640;48.770;9.148;2023-02-01T12:41:26;8.10;79.30
62581;DHT22;48640;48.770;9.148;2023-02-01T12:43:58;8.10;79.30
62581;DHT22;48640;48.770;9.148;2023-02-01T12:46:30;7.90;80.20
62581;DHT22;48640;48.770;9.148;2023-02-01T12:49:01;7.80;80.60
62581;DHT22;48640;48.770;9.148;2023-02-01T12:51:36;7.80;81.20
62581;DHT22;48640;48.770;9.148;2023-02-01T12:54:12;7.70;81.30
62581;DHT22;48640;48.770;9.148;2023-02-01T12:56:43;7.70;81.90
62581;DHT22;48640;48.770;9.148;2023-02-01T12:59:20;7.70;82.00
62581;DHT22;48640;48.770;9.148;2023-02-01T13:01:53;7.50;82.90
62581;DHT22;48640;48.770;9.148;2023-02-01T13:04:26;7.50;82.80
62581;DHT22;48640;48.770;9.148;2023-02-01T13:07:06;7.50;82.80
62581;DHT22;48640;48.770;9.148;2023-02-01T13:09:50;7.60;83.50
62581;DHT22;48640;48.770;9.148;2023-02-01T13:12:22;7.60;83.50
62581;DHT22;48640;48.770;9.148;2023-02-01T13:14:54;7.60;84.10
62581;DHT22;48640;48.770;9.148;2023-02-01T13:17:22;7.70;83.20
62581;DHT22;48640;48.770;9.148;2023-02-01T13:19:57;7.60;83.40
62581;DHT22;48640;48.770;9.148;2023-02-01T13:22:29;7.60;83.50
62581;DHT22;48640;48.770;9.148;2023-02-01T13:25:00;7.60;83.40
62581;DHT22;48640;48.770;9.148;2023-02-01T13:27:29;7.60;83.40
62581;DHT22;48640;48.770;9.148;2023-02-01T13:29:59;7.60;83.00
62581;DHT22;48640;48.770;9.148;2023-02-01T13:32:52;7.60;83.00
62581;DHT22;48640;48.770;9.148;2023-02-01T13:35:32;7.70;83.60
62581;DHT22;48640;48.770;9.148;2023-02-01T13:38:29;7.60;83.10
62581;DHT22;48640;48.770;9.148;2023-02-01T13:41:09;7.70;83.10
62581;DHT22;48640;48.770;9.148;2023-02-01T13:43:40;7.80;83.50
62581;DHT22;48640;48.770;9.148;2023-02-01T13:46:10;7.80;83.30
62581;DHT22;48640;48.770;9.148;2023-02-01T13:48:45;7.70;83.50
62581;DHT22;48640;48.770;9.148;2023-02-01T13:51:13;7.70;83.50
62581;DHT22;48640;48.770;9.148;2023-02-01T13:53:46;7.70;84.60
62581;DHT22;48640;48.770;9.148;2023-02-01T13:56:16;7.80;84.30
62581;DHT22;48640;48.770;9.148;2023-02-01T13:58:45;7.70;83.90
62581;DHT22;48640;48.770;9.148;2023-02-01T14:01:35;7.70;84.60
62581;DHT22;48640;48.770;9.148;2023-02-01T14:04:04;7.70;84.30
62581;DHT22;48640;48.770;9.148;2023-02-01T14:06:44;7.70;83.70
62581;DHT22;48640;48.770;9.148;2023-02-01T14:09:17;7.60;83.80
62581;DHT22;48640;48.770;9.148;2023-02-01T14:11:48;7.60;83.80
62581;DHT22;48640;48.770;9.148;2023-02-01T14:14:42;7.60;84.40
62581;DHT22;48640;48.770;9.148;2023-02-01T14:17:39;7.60;83.40
62581;DHT22;48640;48.770;9.148;2023-02-01T14:23:20;7.60;84.00
62581;DHT22;48640;48.770;9.148;2023-02-01T14:26:01;7.70;83.00
62581;DHT22;48640;48.770;9.148;2023-02-01T14:28:30;7.70;83.20
62581;DHT22;48640;48.770;9.148;2023-02-01T14:30:57;7.70;82.80
62581;DHT22;48640;48.770;9.148;2023-02-01T14:33:26;7.70;82.90
62581;DHT22;48640;48.770;9.148;2023-02-01T14:36:08;7.60;82.90
62581;DHT22;48640;48.770;9.148;2023-02-01T14:38:37;7.60;83.40
62581;DHT22;48640;48.770;9.148;2023-02-01T14:41:26;7.60;83.10
62581;DHT22;48640;48.770;9.148;2023-02-01T14:44:29;7.50;82.90
62581;DHT22;48640;48.770;9.148;2023-02-01T14:47:07;7.40;83.80
62581;DHT22;48640;48.770;9.148;2023-02-01T14:49:38;7.50;83.90
62581;DHT22;48640;48.770;9.148;2023-02-01T14:52:09;7.40;83.90
62581;DHT22;48640;48.770;9.148;2023-02-01T14:54:39;7.40;84.30
62581;DHT22;48640;48.770;9.148;2023-02-01T14:57:14;7.50;84.90
62581;DHT22;48640;48.770;9.148;2023-02-01T14:59:45;7.40;84.90
62581;DHT22;48640;48.770;9.148;2023-02-01T15:02:20;7.40;85.10
62581;DHT22;48640;48.770;9.148;2023-02-01T15:04:54;7.50;85.00
62581;DHT22;48640;48.770;9.148;2023-02-01T15:07:22;7.60;84.50
62581;DHT22;48640;48.770;9.148;2023-02-01T15:09:50;7.60;84.40
62581;DHT22;48640;48.770;9.148;2023-02-01T15:12:23;7.50;84.70
62581;DHT22;48640;48.770;9.148;2023-02-01T15:15:13;7.50;85.20
62581;DHT22;48640;48.770;9.148;2023-02-01T15:17:40;7.40;85.60
62581;DHT22;48640;48.770;9.148;2023-02-01T15:20:13;7.40;85.70
62581;DHT22;48640;48.770;9.148;2023-02-01T15:22:41;7.50;85.90
62581;DHT22;48640;48.770;9.148;2023-02-01T15:25:18;7.40;85.80
62581;DHT22;48640;48.770;9.148;2023-02-01T15:27:45;7.40;85.70
62581;DHT22;48640;48.770;9.148;2023-02-01T15:30:19;7.40;86.00
62581;DHT22;48640;48.770;9.148;2023-02-01T15:32:47;7.40;86.40
62581;DHT22;48640;48.770;9.148;2023-02-01T15:35:39;7.30;86.70
62581;DHT22;48640;48.770;9.148;2023-02-01T15:38:33;7.30;86.50
62581;DHT22;48640;48.770;9.148;2023-02-01T15:41:03;7.30;86.70
62581;DHT22;48640;48.770;9.148;2023-02-01T15:43:32;7.30;86.10
62581;DHT22;48640;48.770;9.148;2023-02-01T15:46:03;7.30;86.00
62581;DHT22;48640;48.770;9.148;2023-02-01T15:48:38;7.40;85.60
62581;DHT22;48640;48.770;9.148;2023-02-01T15:51:06;7.30;84.70
62581;DHT22;48640;48.770;9.148;2023-02-01T15:53:37;7.20;84.60
62581;DHT22;48640;48.770;9.148;2023-02-01T15:56:05;7.20;84.70
62581;DHT22;48640;48.770;9.148;2023-02-01T15:58:32;7.20;85.10
62581;DHT22;48640;48.770;9.148;2023-02-01T16:01:03;7.30;84.80
62581;DHT22;48640;48.770;9.148;2023-02-01T16:03:37;7.40;84.30
62581;DHT22;48640;48.770;9.148;2023-02-01T16:06:07;7.30;83.80
62581;DHT22;48640;48.770;9.148;2023-02-01T16:08:34;7.30;83.70
62581;DHT22;48640;48.770;9.148;2023-02-01T16:11:21;7.30;83.50
62581;DHT22;48640;48.770;9.148;2023-02-01T16:13:49;7.30;83.50
62581;DHT22;48640;48.770;9.148;2023-02-01T16:16:17;7.40;83.40